createdAt,value
2023-04-24T00:01:13.951Z,10.51
2023-04-24T00:03:42.288Z,10.51
2023-04-24T00:06:10.349Z,10.59
2023-04-24T00:08:38.263Z,10.62
2023-04-24T00:11:06.210Z,10.56
2023-04-24T00:13:35.568Z,10.73
2023-04-24T00:16:03.471Z,10.80
2023-04-24T00:18:31.685Z,10.74
2023-04-24T00:20:59.762Z,10.85
2023-04-24T00:23:27.689Z,10.79
2023-04-24T00:25:55.627Z,10.88
2023-04-24T00:28:23.570Z,10.96
2023-04-24T00:30:52.956Z,10.96
2023-04-24T00:33:21.431Z,10.95
2023-04-24T00:35:49.419Z,10.91
2023-04-24T00:38:17.447Z,10.90
2023-04-24T00:40:45.450Z,10.85
2023-04-24T00:43:13.605Z,10.95
2023-04-24T00:45:41.525Z,10.83
2023-04-24T00:48:10.898Z,10.85
2023-04-24T00:50:39.096Z,10.88
2023-04-24T00:53:07.198Z,10.93
2023-04-24T00:55:35.191Z,11.01
2023-04-24T00:58:03.139Z,10.90
2023-04-24T01:00:32.007Z,10.83
2023-04-24T01:03:00.542Z,10.74
2023-04-24T01:05:29.966Z,10.62
2023-04-24T01:07:57.870Z,10.65
2023-04-24T01:10:26.086Z,10.67
2023-04-24T01:12:53.996Z,10.72
2023-04-24T01:15:22.055Z,10.61
2023-04-24T01:17:49.966Z,10.69
2023-04-24T01:20:18.238Z,10.72
2023-04-24T01:22:47.584Z,10.69
2023-04-24T01:25:15.667Z,10.80
2023-04-24T01:27:45.920Z,10.77
2023-04-24T01:30:14.980Z,10.72
2023-04-24T01:32:45.147Z,10.70
2023-04-24T01:35:13.064Z,10.77
2023-04-24T01:37:40.978Z,10.50
2023-04-24T01:40:11.210Z,10.59
2023-04-24T01:42:39.092Z,10.56
2023-04-24T01:45:08.023Z,10.36
2023-04-24T01:47:36.005Z,10.50
2023-04-24T01:50:04.329Z,10.60
2023-04-24T01:52:34.276Z,10.62
2023-04-24T01:55:02.416Z,10.61
2023-04-24T01:57:32.901Z,10.56
2023-04-24T02:00:00.954Z,10.44
2023-04-24T02:02:29.903Z,10.63
2023-04-24T02:04:58.041Z,10.40
2023-04-24T02:07:26.175Z,10.38
2023-04-24T02:09:54.050Z,10.42
2023-04-24T02:12:22.326Z,10.32
2023-04-24T02:14:51.744Z,10.28
2023-04-24T02:17:20.160Z,10.38
2023-04-24T02:19:48.184Z,10.34
2023-04-24T02:22:16.397Z,10.21
2023-04-24T02:24:44.317Z,10.27
2023-04-24T02:27:12.519Z,10.22
2023-04-24T02:29:40.544Z,10.23
2023-04-24T02:32:12.545Z,10.26
2023-04-24T02:34:40.738Z,9.98
2023-04-24T02:37:08.708Z,10.12
2023-04-24T02:39:36.889Z,10.10
2023-04-24T02:42:04.854Z,9.97
2023-04-24T02:44:32.830Z,9.91
2023-04-24T02:47:01.075Z,9.78
2023-04-24T02:49:30.832Z,9.68
2023-04-24T02:51:58.769Z,9.63
2023-04-24T02:54:26.790Z,9.61
2023-04-24T02:56:54.756Z,9.62
2023-04-24T02:59:22.878Z,9.62
2023-04-24T03:01:50.976Z,9.60
2023-04-24T03:04:21.512Z,9.42
2023-04-24T03:06:52.797Z,9.59
2023-04-24T03:09:20.720Z,9.56
2023-04-24T03:11:49.620Z,9.48
2023-04-24T03:14:17.691Z,9.42
2023-04-24T03:16:45.910Z,9.47
2023-04-24T03:19:13.895Z,9.47
2023-04-24T03:21:42.126Z,9.55
2023-04-24T03:24:11.478Z,9.28
2023-04-24T03:26:39.358Z,9.30
2023-04-24T03:29:07.285Z,9.36
2023-04-24T03:31:35.627Z,9.24
2023-04-24T03:34:03.694Z,9.50
2023-04-24T03:36:31.608Z,9.62
2023-04-24T03:38:59.540Z,9.34
2023-04-24T03:41:28.872Z,9.25
2023-04-24T03:43:57.064Z,9.39
2023-04-24T03:46:25.401Z,9.32
2023-04-24T03:48:53.296Z,9.32
2023-04-24T03:51:21.278Z,9.36
2023-04-24T03:53:49.263Z,9.40
2023-04-24T03:56:17.211Z,9.46
2023-04-24T03:58:46.530Z,9.46
2023-04-24T04:01:17.025Z,9.47
2023-04-24T04:03:45.190Z,9.36
2023-04-24T04:06:14.162Z,9.34
2023-04-24T04:08:42.070Z,9.19
2023-04-24T04:11:10.021Z,9.22
2023-04-24T04:13:37.970Z,9.27
2023-04-24T04:16:07.784Z,9.23
2023-04-24T04:18:36.495Z,9.18
2023-04-24T04:21:04.468Z,9.17
2023-04-24T04:23:33.123Z,9.14
2023-04-24T04:26:01.359Z,9.10
2023-04-24T04:28:29.242Z,9.20
2023-04-24T04:30:58.550Z,9.30
2023-04-24T04:33:27.947Z,9.38
2023-04-24T04:35:57.703Z,9.31
2023-04-24T04:38:27.790Z,9.29
2023-04-24T04:40:57.348Z,9.23
2023-04-24T04:43:25.517Z,9.32
2023-04-24T04:45:53.579Z,9.41
2023-04-24T04:48:21.476Z,9.27
2023-04-24T04:50:50.771Z,9.26
2023-04-24T04:53:18.748Z,9.23
2023-04-24T04:55:47.539Z,9.32
2023-04-24T04:58:15.432Z,9.39
2023-04-24T05:00:43.523Z,9.30
2023-04-24T05:03:20.732Z,9.19
2023-04-24T05:05:51.130Z,9.21
2023-04-24T05:08:26.995Z,9.27
2023-04-24T05:10:56.014Z,9.20
2023-04-24T05:13:35.588Z,9.19
2023-04-24T05:16:07.936Z,9.10
2023-04-24T05:18:35.939Z,9.20
2023-04-24T05:21:05.256Z,9.15
2023-04-24T05:23:33.124Z,9.22
2023-04-24T05:26:01.128Z,9.22
2023-04-24T05:28:30.360Z,9.15
2023-04-24T05:31:00.465Z,9.19
2023-04-24T05:33:28.954Z,9.14
2023-04-24T05:35:56.913Z,9.13
2023-04-24T05:38:26.527Z,9.02
2023-04-24T05:40:54.472Z,8.97
2023-04-24T05:43:22.417Z,8.84
2023-04-24T05:45:50.685Z,8.90
2023-04-24T05:48:18.774Z,8.85
2023-04-24T05:50:48.364Z,8.94
2023-04-24T05:53:17.267Z,8.90
2023-04-24T05:55:55.415Z,8.99
2023-04-24T05:58:28.498Z,8.85
2023-04-24T06:01:07.649Z,8.93
2023-04-24T06:03:42.470Z,8.82
2023-04-24T06:06:10.632Z,8.90
2023-04-24T06:08:45.269Z,8.85
2023-04-24T06:11:20.149Z,8.91
2023-04-24T06:13:48.433Z,8.79
2023-04-24T06:16:16.401Z,8.81
2023-04-24T06:18:51.970Z,8.80
2023-04-24T06:21:26.530Z,8.84
2023-04-24T06:23:59.198Z,8.92
2023-04-24T06:26:28.730Z,8.87
2023-04-24T06:28:57.963Z,8.89
2023-04-24T06:31:28.358Z,8.79
2023-04-24T06:33:58.920Z,8.74
2023-04-24T06:36:27.367Z,8.85
2023-04-24T06:38:55.263Z,8.64
2023-04-24T06:41:30.664Z,8.55
2023-04-24T06:44:04.149Z,8.49
2023-04-24T06:46:32.453Z,8.54
2023-04-24T06:49:03.754Z,8.55
2023-04-24T06:51:37.476Z,8.42
2023-04-24T06:54:05.487Z,8.51
2023-04-24T06:56:35.344Z,8.43
2023-04-24T06:59:04.617Z,8.38
2023-04-24T07:01:33.231Z,8.44
2023-04-24T07:04:01.767Z,8.34
2023-04-24T07:06:31.688Z,8.46
2023-04-24T07:08:59.692Z,8.48
2023-04-24T07:11:30.231Z,8.35
2023-04-24T07:13:58.170Z,8.60
2023-04-24T07:16:28.208Z,8.50
2023-04-24T07:18:56.176Z,8.48
2023-04-24T07:21:24.189Z,8.43
2023-04-24T07:23:52.097Z,8.45
2023-04-24T07:26:20.355Z,8.35
2023-04-24T07:28:48.322Z,8.25
2023-04-24T07:31:16.301Z,8.37
2023-04-24T07:33:45.628Z,8.44
2023-04-24T07:36:17.237Z,8.23
2023-04-24T07:38:45.093Z,8.22
2023-04-24T07:41:13.393Z,8.12
2023-04-24T07:43:41.511Z,8.28
2023-04-24T07:46:09.564Z,8.13
2023-04-24T07:48:37.530Z,8.11
2023-04-24T07:51:06.829Z,8.29
2023-04-24T07:53:34.773Z,8.32
2023-04-24T07:56:03.048Z,8.19
2023-04-24T07:58:30.979Z,8.14
2023-04-24T08:00:58.973Z,8.04
2023-04-24T08:03:27.074Z,8.13
2023-04-24T08:05:55.103Z,8.01
2023-04-24T08:08:24.562Z,8.03
2023-04-24T08:10:52.661Z,7.96
2023-04-24T08:13:20.831Z,8.17
2023-04-24T08:15:49.110Z,7.96
2023-04-24T08:18:17.062Z,8.13
2023-04-24T08:20:46.453Z,8.20
2023-04-24T08:23:14.455Z,8.30
2023-04-24T08:25:43.732Z,8.26
2023-04-24T08:28:11.814Z,8.06
2023-04-24T08:30:43.104Z,7.98
2023-04-24T08:33:14.709Z,7.66
2023-04-24T08:35:43.092Z,7.57
2023-04-24T08:38:10.947Z,7.74
2023-04-24T08:40:39.296Z,7.73
2023-04-24T08:43:08.604Z,7.56
2023-04-24T08:45:36.554Z,7.50
2023-04-24T08:48:04.922Z,7.58
2023-04-24T08:50:34.055Z,7.61
2023-04-24T08:53:04.597Z,7.47
2023-04-24T08:55:33.135Z,7.62
2023-04-24T08:58:01.955Z,7.61
2023-04-24T09:00:31.356Z,7.69
2023-04-24T09:02:59.393Z,7.51
2023-04-24T09:05:28.557Z,7.70
2023-04-24T09:07:57.409Z,7.76
2023-04-24T09:10:26.280Z,7.66
2023-04-24T09:13:04.898Z,7.69
2023-04-24T09:15:34.555Z,7.65
2023-04-24T09:18:02.738Z,7.82
2023-04-24T09:20:31.189Z,7.88
2023-04-24T09:22:59.174Z,7.73
2023-04-24T09:25:33.005Z,7.84
2023-04-24T09:28:02.963Z,7.81
2023-04-24T09:30:31.013Z,7.95
2023-04-24T09:33:16.653Z,8.28
2023-04-24T09:35:48.689Z,8.15
2023-04-24T09:38:19.866Z,8.36
2023-04-24T09:40:48.055Z,8.48
2023-04-24T09:43:16.200Z,8.57
2023-04-24T09:45:44.430Z,8.07
2023-04-24T09:48:12.358Z,7.96
2023-04-24T09:50:41.769Z,8.09
2023-04-24T09:53:11.668Z,7.95
2023-04-24T09:55:42.011Z,8.08
2023-04-24T09:58:10.312Z,7.92
2023-04-24T10:00:38.725Z,7.96
2023-04-24T10:03:06.933Z,8.04
2023-04-24T10:05:35.478Z,7.74
2023-04-24T10:08:05.514Z,7.75
2023-04-24T10:10:33.591Z,7.79
2023-04-24T10:13:01.641Z,7.69
2023-04-24T10:15:29.877Z,7.90
2023-04-24T10:17:57.768Z,7.80
2023-04-24T10:20:26.487Z,7.72
2023-04-24T10:22:55.113Z,7.80
2023-04-24T10:25:26.270Z,7.85
2023-04-24T10:27:54.472Z,7.93
2023-04-24T10:30:22.708Z,8.01
2023-04-24T10:32:50.731Z,7.92
2023-04-24T10:35:18.708Z,8.03
2023-04-24T10:37:48.074Z,8.04
2023-04-24T10:40:19.465Z,8.07
2023-04-24T10:42:50.874Z,8.04
2023-04-24T10:45:20.023Z,8.08
2023-04-24T10:47:54.005Z,8.01
2023-04-24T10:50:21.911Z,8.06
2023-04-24T10:52:52.215Z,8.06
2023-04-24T10:55:48.272Z,8.11
2023-04-24T10:58:18.694Z,8.25
2023-04-24T11:00:46.910Z,8.38
2023-04-24T11:03:29.017Z,8.40
2023-04-24T11:06:01.600Z,8.47
2023-04-24T11:08:31.539Z,8.41
2023-04-24T11:11:03.789Z,8.56
2023-04-24T11:14:05.237Z,8.26
2023-04-24T11:16:35.573Z,8.26
2023-04-24T11:19:05.156Z,8.41
2023-04-24T11:21:43.458Z,8.45
2023-04-24T11:24:27.753Z,8.24
2023-04-24T11:26:56.161Z,8.26
2023-04-24T11:29:25.149Z,8.12
2023-04-24T11:31:55.185Z,8.19
2023-04-24T11:34:24.365Z,8.38
2023-04-24T11:36:52.283Z,8.43
2023-04-24T11:39:20.181Z,8.43
2023-04-24T11:41:48.346Z,8.52
2023-04-24T11:44:16.412Z,8.47
2023-04-24T11:46:44.671Z,8.67
2023-04-24T11:49:13.967Z,8.88
2023-04-24T11:51:51.485Z,9.04
2023-04-24T11:54:21.787Z,8.86
2023-04-24T11:56:49.873Z,8.85
2023-04-24T11:59:17.920Z,8.78
2023-04-24T12:01:46.802Z,8.51
2023-04-24T12:04:18.257Z,8.49
2023-04-24T12:07:01.400Z,8.48
2023-04-24T12:09:29.306Z,8.75
2023-04-24T12:11:58.353Z,8.59
2023-04-24T12:14:26.705Z,8.78
2023-04-24T12:16:54.588Z,8.93
2023-04-24T12:19:24.763Z,9.07
2023-04-24T12:22:02.636Z,9.19
2023-04-24T12:24:32.772Z,9.41
2023-04-24T12:27:02.386Z,9.50
2023-04-24T12:29:30.356Z,9.31
2023-04-24T12:31:58.264Z,9.41
2023-04-24T12:34:39.801Z,9.43
2023-04-24T12:37:18.016Z,9.29
2023-04-24T12:39:59.971Z,9.55
2023-04-24T12:42:28.638Z,9.50
2023-04-24T12:44:58.888Z,9.41
2023-04-24T12:48:08.997Z,9.24
2023-04-24T12:51:29.594Z,9.12
2023-04-24T12:53:57.514Z,8.88
2023-04-24T12:56:26.188Z,8.96
2023-04-24T12:58:54.070Z,9.20
2023-04-24T13:01:22.392Z,9.62
2023-04-24T13:03:51.675Z,9.91
2023-04-24T13:06:22.015Z,10.17
2023-04-24T13:08:49.968Z,9.77
2023-04-24T13:11:17.881Z,10.19
2023-04-24T13:13:45.798Z,10.12
2023-04-24T13:16:13.765Z,10.17
2023-04-24T13:18:42.465Z,10.61
2023-04-24T13:21:10.431Z,10.51
2023-04-24T13:23:39.878Z,10.42
2023-04-24T13:26:08.624Z,10.37
2023-04-24T13:28:36.854Z,10.35
2023-04-24T13:31:09.753Z,10.34
2023-04-24T13:33:38.117Z,10.33
2023-04-24T13:36:06.172Z,10.57
2023-04-24T13:38:34.114Z,10.39
2023-04-24T13:41:03.898Z,10.81
2023-04-24T13:43:40.906Z,10.90
2023-04-24T13:46:16.425Z,10.59
2023-04-24T13:48:45.152Z,10.94
2023-04-24T13:51:13.246Z,11.14
2023-04-24T13:53:41.669Z,11.32
2023-04-24T13:56:11.083Z,11.50
2023-04-24T13:58:39.507Z,11.26
2023-04-24T14:01:07.458Z,11.12
2023-04-24T14:03:35.919Z,10.91
2023-04-24T14:06:05.266Z,10.98
2023-04-24T14:08:33.263Z,11.19
2023-04-24T14:11:02.419Z,11.08
2023-04-24T14:13:33.942Z,11.25
2023-04-24T14:16:01.867Z,11.23
2023-04-24T14:18:30.096Z,11.13
2023-04-24T14:20:57.989Z,11.17
2023-04-24T14:23:25.837Z,11.28
2023-04-24T14:25:54.207Z,11.12
2023-04-24T14:28:22.558Z,11.02
2023-04-24T14:30:51.889Z,11.06
2023-04-24T14:33:19.840Z,11.34
2023-04-24T14:35:48.304Z,11.31
2023-04-24T14:38:16.463Z,11.31
2023-04-24T14:41:05.709Z,11.07
2023-04-24T14:43:33.738Z,11.30
2023-04-24T14:46:03.149Z,11.05
2023-04-24T14:48:31.528Z,11.03
2023-04-24T14:50:59.412Z,10.92
2023-04-24T14:53:27.353Z,10.93
2023-04-24T14:55:55.705Z,10.97
2023-04-24T14:58:24.171Z,11.12
2023-04-24T15:00:53.067Z,11.40
2023-04-24T15:03:23.214Z,11.10
2023-04-24T15:05:51.548Z,11.37
2023-04-24T15:08:19.550Z,11.31
2023-04-24T15:10:49.024Z,11.09
2023-04-24T15:13:16.936Z,11.50
2023-04-24T15:15:44.912Z,11.70
2023-04-24T15:18:13.199Z,11.75
2023-04-24T15:20:42.945Z,11.67
2023-04-24T15:23:11.048Z,11.44
2023-04-24T15:25:38.983Z,11.85
2023-04-24T15:28:07.268Z,11.89
2023-04-24T15:30:35.150Z,11.50
2023-04-24T15:33:03.114Z,11.74
2023-04-24T15:35:31.652Z,11.89
2023-04-24T15:38:01.011Z,11.85
2023-04-24T15:40:28.900Z,11.66
2023-04-24T15:42:56.897Z,11.57
2023-04-24T15:45:24.764Z,11.84
2023-04-24T15:47:52.714Z,11.92
2023-04-24T15:50:22.675Z,11.85
2023-04-24T15:52:50.663Z,11.86
2023-04-24T15:55:19.940Z,11.97
2023-04-24T15:57:50.249Z,12.18
2023-04-24T16:00:19.410Z,11.81
2023-04-24T16:02:47.662Z,11.96
2023-04-24T16:05:20.534Z,12.43
2023-04-24T16:07:51.160Z,12.10
2023-04-24T16:10:20.866Z,12.91
2023-04-24T16:12:48.845Z,12.63
2023-04-24T16:15:16.778Z,12.84
2023-04-24T16:17:44.770Z,12.92
2023-04-24T16:20:13.280Z,12.78
2023-04-24T16:22:44.489Z,12.81
2023-04-24T16:25:15.311Z,12.69
2023-04-24T16:27:44.817Z,12.65
2023-04-24T16:30:13.397Z,12.52
2023-04-24T16:32:41.280Z,12.18
2023-04-24T16:35:09.842Z,12.13
2023-04-24T16:37:37.675Z,11.94
2023-04-24T16:40:11.060Z,11.99
2023-04-24T16:42:39.188Z,11.99
2023-04-24T16:45:10.416Z,11.45
2023-04-24T16:47:38.414Z,11.31
2023-04-24T16:50:07.427Z,11.22
2023-04-24T16:52:35.343Z,11.33
2023-04-24T16:55:03.526Z,11.43
2023-04-24T16:57:31.446Z,11.08
2023-04-24T16:59:59.339Z,11.30
2023-04-24T17:02:29.144Z,10.88
2023-04-24T17:04:57.319Z,11.18
2023-04-24T17:07:25.298Z,10.97
2023-04-24T17:09:53.139Z,10.82
2023-04-24T17:12:21.022Z,10.65
2023-04-24T17:14:49.273Z,10.86
2023-04-24T17:17:18.452Z,10.74
2023-04-24T17:19:47.865Z,10.66
2023-04-24T17:22:15.783Z,10.68
2023-04-24T17:24:43.994Z,10.62
2023-04-24T17:27:15.720Z,10.73
2023-04-24T17:29:47.571Z,10.75
2023-04-24T17:32:18.948Z,10.91
2023-04-24T17:34:49.156Z,10.61
2023-04-24T17:37:19.862Z,10.46
2023-04-24T17:39:48.288Z,10.54
2023-04-24T17:42:16.283Z,10.57
2023-04-24T17:44:44.507Z,10.36
2023-04-24T17:47:12.351Z,10.31
2023-04-24T17:49:40.490Z,10.39
2023-04-24T17:52:09.828Z,10.50
2023-04-24T17:54:38.184Z,10.52
2023-04-24T17:57:06.103Z,10.56
2023-04-24T17:59:34.046Z,10.40
2023-04-24T18:02:01.974Z,10.57
2023-04-24T18:04:30.337Z,10.57
2023-04-24T18:06:58.346Z,10.02
2023-04-24T18:09:27.844Z,10.08
2023-04-24T18:11:57.222Z,10.00
2023-04-24T18:14:25.765Z,9.96
2023-04-24T18:16:53.792Z,9.92
2023-04-24T18:19:21.668Z,9.86
2023-04-24T18:21:49.666Z,9.75
2023-04-24T18:24:17.605Z,9.88
2023-04-24T18:26:47.182Z,9.62
2023-04-24T18:29:15.100Z,9.48
2023-04-24T18:31:43.067Z,9.46
2023-04-24T18:34:11.281Z,9.25
2023-04-24T18:36:39.194Z,9.26
2023-04-24T18:39:07.144Z,9.26
2023-04-24T18:41:35.695Z,9.18
2023-04-24T18:44:05.034Z,8.98
2023-04-24T18:46:37.961Z,9.12
2023-04-24T18:49:06.739Z,9.16
2023-04-24T18:51:46.703Z,9.08
2023-04-24T18:54:20.794Z,9.10
2023-04-24T18:56:48.918Z,9.01
2023-04-24T18:59:20.689Z,8.96
2023-04-24T19:01:48.767Z,9.04
2023-04-24T19:04:18.088Z,8.94
2023-04-24T19:06:46.074Z,8.99
2023-04-24T19:09:14.025Z,9.04
2023-04-24T19:11:43.540Z,8.95
2023-04-24T19:14:11.748Z,9.08
2023-04-24T19:16:41.771Z,9.11
2023-04-24T19:19:09.700Z,9.01
2023-04-24T19:21:37.682Z,8.99
2023-04-24T19:24:06.050Z,9.02
2023-04-24T19:26:34.052Z,9.10
2023-04-24T19:29:06.259Z,9.10
2023-04-24T19:31:34.248Z,9.06
2023-04-24T19:34:03.548Z,9.00
2023-04-24T19:36:32.456Z,8.88
2023-04-24T19:39:00.343Z,9.02
2023-04-24T19:41:28.266Z,8.79
2023-04-24T19:43:56.446Z,8.88
2023-04-24T19:46:25.614Z,8.84
2023-04-24T19:48:54.168Z,8.98
2023-04-24T19:51:23.752Z,8.92
2023-04-24T19:53:52.164Z,9.05
2023-04-24T19:56:20.143Z,8.82
2023-04-24T19:58:48.512Z,8.86
2023-04-24T20:01:16.659Z,8.93
2023-04-24T20:03:44.880Z,8.78
2023-04-24T20:06:13.159Z,8.67
2023-04-24T20:08:42.829Z,8.77
2023-04-24T20:11:10.759Z,8.57
2023-04-24T20:13:38.690Z,8.68
2023-04-24T20:16:09.664Z,8.62
2023-04-24T20:18:39.129Z,8.63
2023-04-24T20:21:07.450Z,8.56
2023-04-24T20:23:35.458Z,8.63
2023-04-24T20:26:05.114Z,8.43
2023-04-24T20:28:33.496Z,8.56
2023-04-24T20:31:01.547Z,8.33
2023-04-24T20:33:30.440Z,8.45
2023-04-24T20:35:58.637Z,8.30
2023-04-24T20:38:26.624Z,8.28
2023-04-24T20:40:58.232Z,8.20
2023-04-24T20:43:29.110Z,8.07
2023-04-24T20:45:58.655Z,7.96
2023-04-24T20:48:26.900Z,8.12
2023-04-24T20:50:54.952Z,8.03
2023-04-24T20:53:23.202Z,7.92
2023-04-24T20:55:51.240Z,7.82
2023-04-24T20:58:20.888Z,7.85
2023-04-24T21:00:50.742Z,7.91
2023-04-24T21:03:18.985Z,7.79
2023-04-24T21:05:47.107Z,7.83
2023-04-24T21:08:15.097Z,7.69
2023-04-24T21:10:43.095Z,7.70
2023-04-24T21:13:11.309Z,7.85
2023-04-24T21:15:39.736Z,7.76
2023-04-24T21:18:09.295Z,7.50
2023-04-24T21:20:37.247Z,7.71
2023-04-24T21:23:05.358Z,7.49
2023-04-24T21:25:33.342Z,7.56
2023-04-24T21:28:01.564Z,7.56
2023-04-24T21:30:31.192Z,7.43
2023-04-24T21:32:59.171Z,7.44
2023-04-24T21:35:28.692Z,7.53
2023-04-24T21:37:56.636Z,7.39
2023-04-24T21:40:24.557Z,7.42
2023-04-24T21:42:53.023Z,7.47
2023-04-24T21:45:21.357Z,7.44
2023-04-24T21:47:49.368Z,7.37
2023-04-24T21:50:17.371Z,7.43
2023-04-24T21:52:47.277Z,7.35
2023-04-24T21:55:15.618Z,7.46
2023-04-24T21:57:43.665Z,7.46
2023-04-24T22:00:13.676Z,7.60
2023-04-24T22:02:42.994Z,7.63
2023-04-24T22:05:15.652Z,7.43
2023-04-24T22:07:46.687Z,7.45
2023-04-24T22:10:17.913Z,7.33
2023-04-24T22:12:46.194Z,7.33
2023-04-24T22:15:14.504Z,7.36
2023-04-24T22:17:43.626Z,7.29
2023-04-24T22:20:12.208Z,7.25
2023-04-24T22:22:40.090Z,7.28
2023-04-24T22:25:08.853Z,7.18
2023-04-24T22:27:38.139Z,7.21
2023-04-24T22:30:08.989Z,7.17
2023-04-24T22:32:37.263Z,7.22
2023-04-24T22:35:05.635Z,6.92
2023-04-24T22:37:33.633Z,7.04
2023-04-24T22:40:01.612Z,7.06
2023-04-24T22:42:30.185Z,6.88
2023-04-24T22:44:59.457Z,6.94
2023-04-24T22:47:27.392Z,6.78
2023-04-24T22:49:55.312Z,6.97
2023-04-24T22:52:23.470Z,6.91
2023-04-24T22:54:52.156Z,6.85
2023-04-24T22:57:20.083Z,6.91
2023-04-24T22:59:48.129Z,6.80
2023-04-24T23:02:17.842Z,6.60
2023-04-24T23:04:45.877Z,6.65
2023-04-24T23:07:13.742Z,6.71
2023-04-24T23:09:41.643Z,6.71
2023-04-24T23:12:09.496Z,6.58
2023-04-24T23:14:37.532Z,6.57
2023-04-24T23:17:05.387Z,6.76
2023-04-24T23:19:35.114Z,6.39
2023-04-24T23:22:03.114Z,6.49
2023-04-24T23:24:31.027Z,6.43
2023-04-24T23:26:58.881Z,6.40
2023-04-24T23:29:27.077Z,6.51
2023-04-24T23:31:54.995Z,6.48
2023-04-24T23:34:22.916Z,6.23
2023-04-24T23:36:52.492Z,6.41
2023-04-24T23:39:20.639Z,6.35
2023-04-24T23:41:49.476Z,6.19
2023-04-24T23:44:17.489Z,6.13
2023-04-24T23:46:45.428Z,6.26
2023-04-24T23:49:14.739Z,6.18
2023-04-24T23:51:42.665Z,6.10
2023-04-24T23:54:12.957Z,6.20
2023-04-24T23:56:40.883Z,6.12
2023-04-24T23:59:08.771Z,5.99
